Ash Fork, Arizona
Current Conditions -  °F | °C
As of 9:53 PM on Wednesday 22 Oct 2014 (Local Time) from KPRC Reporting Station
Clear Clear  
Wind Chill: 56°   Ceiling: Unl
Heat Index: 56°   Visibility: 10mi
Dew Point: 37°   Wind: 9mph
Humidity: 49%   Direction: 190°S
Pressure: 30.2"   Gusts: NA
Location:  35.23°N, 112.49°W
Report Text: KPRC 230453Z AUTO 19008KT 10SM CLR 13/03 A3020 RMK AO2 SLP168 T01330028
Loading
Personal Weather Stations






























Interactive Weather Map
Tropical Storm Tracking
New forecast layout! Learn more

10-Day Weather Forecast

Advertisements
Track Severe Weather on mobile